Time;durP1;ratioP1;P1;durP2;ratioP2;P2;SDS_P1;SDS_P2;PMS_P1;PMS_P2;Temp;Humidity;BMP_temperature;BMP_pressure;BME280_temperature;BME280_humidity;BME280_pressure;Samples;Min_cycle;Max_cycle;Signal;HPM_P1;HPM_P2
2023/03/11 00:00:32;;;;;;;13.40;7.30;;;0.70;99.90;;;;;;5049586;28;20170;-89
2023/03/11 00:03:02;;;;;;;10.07;7.10;;;0.70;99.90;;;;;;5049563;28;20522;-89
2023/03/11 00:05:32;;;;;;;9.77;6.73;;;0.70;99.90;;;;;;5049697;28;20193;-88
2023/03/11 00:07:58;;;;;;;11.23;7.10;;;0.70;99.90;;;;;;5032796;28;20198;-91
2023/03/11 00:10:28;;;;;;;9.87;7.03;;;0.70;99.90;;;;;;5033887;28;20181;-90
2023/03/11 00:12:54;;;;;;;8.43;6.57;;;0.70;99.90;;;;;;5034202;28;20163;-88
2023/03/11 00:15:20;;;;;;;9.67;6.87;;;0.80;99.90;;;;;;5034076;28;20262;-90
2023/03/11 00:17:49;;;;;;;10.37;6.53;;;0.70;99.90;;;;;;5034047;28;20639;-90
2023/03/11 00:20:21;;;;;;;8.43;6.67;;;0.80;99.90;;;;;;5032427;28;20187;-88
2023/03/11 00:22:47;;;;;;;8.13;6.30;;;0.70;99.90;;;;;;5033977;28;20205;-88
2023/03/11 00:25:13;;;;;;;8.17;6.07;;;0.70;99.90;;;;;;5034216;28;20206;-87
2023/03/11 00:27:39;;;;;;;7.23;5.67;;;0.70;99.90;;;;;;5032790;28;20601;-88
2023/03/11 00:30:06;;;;;;;7.40;5.10;;;0.70;99.90;;;;;;5033204;28;20209;-87
2023/03/11 00:32:31;;;;;;;8.33;5.13;;;0.70;99.90;;;;;;5036224;28;20226;-88
2023/03/11 00:34:57;;;;;;;7.10;5.27;;;0.70;99.90;;;;;;5036300;28;20593;-87
2023/03/11 00:37:23;;;;;;;7.23;4.83;;;0.70;99.90;;;;;;5037531;28;20159;-87
2023/03/11 00:39:49;;;;;;;7.87;4.83;;;0.70;99.90;;;;;;5036452;28;20217;-86
2023/03/11 00:42:14;;;;;;;8.00;5.30;;;0.70;99.90;;;;;;5036506;28;20269;-88
2023/03/11 00:44:40;;;;;;;7.50;5.23;;;0.70;99.90;;;;;;5037640;28;20209;-89
2023/03/11 00:47:06;;;;;;;6.43;5.27;;;0.70;99.90;;;;;;5037433;28;20234;-88
2023/03/11 00:49:32;;;;;;;6.87;5.10;;;0.70;99.90;;;;;;5036270;28;20199;-87
2023/03/11 00:51:57;;;;;;;8.77;5.53;;;0.70;99.90;;;;;;5036037;28;20171;-86
2023/03/11 00:54:23;;;;;;;6.33;5.20;;;0.70;99.90;;;;;;5036235;28;20186;-87
2023/03/11 00:56:48;;;;;;;7.60;5.80;;;0.70;99.90;;;;;;5036256;28;20174;-87
2023/03/11 00:59:14;;;;;;;6.60;4.83;;;0.70;99.90;;;;;;5037045;28;20174;-87
2023/03/11 01:01:40;;;;;;;8.70;5.93;;;0.70;99.90;;;;;;5035744;28;20189;-87
2023/03/11 01:04:05;;;;;;;6.40;5.20;;;0.70;99.90;;;;;;5037298;28;20171;-89
2023/03/11 01:06:31;;;;;;;7.47;5.60;;;0.70;99.90;;;;;;5036404;28;20197;-88
2023/03/11 01:08:57;;;;;;;9.30;6.70;;;0.70;99.90;;;;;;5036089;28;20210;-87
2023/03/11 01:11:23;;;;;;;10.80;6.47;;;0.70;99.90;;;;;;5037145;28;20193;-86
2023/03/11 01:13:48;;;;;;;8.43;6.27;;;0.60;99.90;;;;;;5036008;28;20193;-88
2023/03/11 01:16:14;;;;;;;9.93;7.13;;;0.60;99.90;;;;;;5036970;28;20198;-87
2023/03/11 01:18:40;;;;;;;9.63;7.00;;;0.70;99.90;;;;;;5037154;28;20185;-90
2023/03/11 01:21:06;;;;;;;8.33;6.73;;;0.60;99.90;;;;;;5035524;28;20181;-89
2023/03/11 01:23:31;;;;;;;9.50;6.70;;;0.70;99.90;;;;;;5037096;28;20179;-89
2023/03/11 01:25:57;;;;;;;9.73;7.17;;;0.60;99.90;;;;;;5037224;28;20220;-89
2023/03/11 01:28:23;;;;;;;9.60;6.97;;;0.70;99.90;;;;;;5036978;28;20210;-89
2023/03/11 01:30:49;;;;;;;8.30;6.80;;;0.60;99.90;;;;;;5035618;28;20273;-89
2023/03/11 01:33:17;;;;;;;9.73;7.70;;;0.60;99.90;;;;;;5036683;28;20264;-89
2023/03/11 01:35:44;;;;;;;9.10;6.90;;;0.60;99.90;;;;;;5035393;28;20187;-89
2023/03/11 01:38:09;;;;;;;9.53;6.97;;;0.60;99.90;;;;;;5035765;28;20581;-88
2023/03/11 01:40:42;;;;;;;10.17;7.53;;;0.60;99.90;;;;;;5035585;28;20198;-88
2023/03/11 01:43:39;;;;;;;11.50;7.83;;;0.60;99.90;;;;;;5035979;28;20197;-87
2023/03/11 01:46:13;;;;;;;9.20;7.13;;;0.60;99.90;;;;;;5035598;28;20174;-89
2023/03/11 01:48:41;;;;;;;11.93;8.37;;;0.60;99.90;;;;;;5036636;28;20203;-88
2023/03/11 01:51:07;;;;;;;12.03;7.83;;;0.60;99.90;;;;;;5035167;28;20273;-88
2023/03/11 01:53:34;;;;;;;12.30;8.87;;;0.60;99.90;;;;;;5036790;28;20270;-88
2023/03/11 01:56:03;;;;;;;11.20;7.83;;;0.60;99.90;;;;;;5036649;28;20178;-89
2023/03/11 01:58:34;;;;;;;12.43;8.53;;;0.60;99.90;;;;;;5035100;28;20598;-89
2023/03/11 02:01:01;;;;;;;11.57;8.53;;;0.60;99.90;;;;;;5035113;28;20175;-89
2023/03/11 02:03:35;;;;;;;13.37;9.23;;;0.60;99.90;;;;;;5035145;28;20188;-86
2023/03/11 02:06:04;;;;;;;12.10;8.70;;;0.60;99.90;;;;;;5035144;28;20196;-88
2023/03/11 02:08:33;;;;;;;12.07;8.87;;;0.60;99.90;;;;;;5034953;28;20223;-87
2023/03/11 02:11:02;;;;;;;12.10;8.93;;;0.60;99.90;;;;;;5034838;28;20167;-88
2023/03/11 02:13:28;;;;;;;11.43;8.43;;;0.60;99.90;;;;;;5036015;28;20625;-88
2023/03/11 02:15:54;;;;;;;12.77;8.67;;;0.60;99.90;;;;;;5034965;28;20610;-89
2023/03/11 02:18:21;;;;;;;12.43;8.07;;;0.60;99.90;;;;;;5036091;28;20216;-89
2023/03/11 02:21:02;;;;;;;11.67;8.80;;;0.60;99.90;;;;;;5034273;28;20181;-88
2023/03/11 02:23:48;;;;;;;11.87;9.00;;;0.60;99.90;;;;;;5034781;28;20214;-87
2023/03/11 02:26:38;;;;;;;10.57;8.33;;;0.60;99.90;;;;;;5035751;28;20163;-87
2023/03/11 02:29:06;;;;;;;10.43;7.83;;;0.60;99.90;;;;;;5034442;28;20592;-88
2023/03/11 02:34:29;;;;;;;12.13;8.97;;;0.60;99.90;;;;;;5114374;22;20246;-85
2023/03/11 02:36:56;;;;;;;13.57;8.93;;;0.60;99.90;;;;;;4978664;28;20196;-85
2023/03/11 02:39:33;;;;;;;10.90;8.13;;;0.60;99.90;;;;;;4995805;28;20172;-86
2023/03/11 02:42:01;;;;;;;11.73;8.97;;;0.60;99.90;;;;;;4978305;28;20242;-84
2023/03/11 02:44:28;;;;;;;13.10;9.17;;;0.60;99.90;;;;;;4995500;28;20183;-84
2023/03/11 02:46:53;;;;;;;14.80;9.00;;;0.60;99.90;;;;;;4978481;28;20628;-84
2023/03/11 02:49:21;;;;;;;13.03;9.03;;;0.60;99.90;;;;;;4977815;28;20215;-84
2023/03/11 02:51:47;;;;;;;11.20;8.10;;;0.60;99.90;;;;;;4978200;28;20188;-85
2023/03/11 02:54:13;;;;;;;11.53;8.53;;;0.60;99.90;;;;;;4977100;28;20192;-82
2023/03/11 02:56:38;;;;;;;13.20;9.00;;;0.60;99.90;;;;;;4995652;28;20607;-83
2023/03/11 02:59:04;;;;;;;11.37;7.90;;;0.60;99.90;;;;;;4977814;28;20195;-84
2023/03/11 03:01:30;;;;;;;12.27;8.03;;;0.60;99.90;;;;;;4977838;28;20190;-85
2023/03/11 03:03:55;;;;;;;12.07;8.47;;;0.60;99.90;;;;;;4986845;28;20560;-83
2023/03/11 03:06:21;;;;;;;13.60;8.67;;;0.60;99.90;;;;;;4997262;28;20266;-84
2023/03/11 03:08:47;;;;;;;11.13;8.57;;;0.60;99.90;;;;;;5014844;28;20536;-83
2023/03/11 03:11:13;;;;;;;13.57;8.70;;;0.60;99.90;;;;;;4997023;28;20179;-84
2023/03/11 03:13:39;;;;;;;12.67;8.73;;;0.60;99.90;;;;;;4997098;28;20245;-85
2023/03/11 03:16:04;;;;;;;11.70;8.40;;;0.60;99.90;;;;;;4997187;28;20606;-84
2023/03/11 03:18:30;;;;;;;12.73;8.53;;;0.60;99.90;;;;;;5014481;28;20202;-83
2023/03/11 03:20:56;;;;;;;11.50;8.43;;;0.60;99.90;;;;;;4997118;28;20183;-83
2023/03/11 03:23:21;;;;;;;11.23;8.50;;;0.60;99.90;;;;;;4997195;28;20593;-84
2023/03/11 03:25:47;;;;;;;12.80;9.07;;;0.60;99.90;;;;;;4996919;28;20266;-84
2023/03/11 03:28:13;;;;;;;11.73;8.87;;;0.60;99.90;;;;;;4996996;28;20211;-83
2023/03/11 03:30:39;;;;;;;16.47;8.83;;;0.60;99.90;;;;;;5014477;28;20617;-83
2023/03/11 03:33:06;;;;;;;14.33;8.73;;;0.60;99.90;;;;;;4998126;28;20325;-84
2023/03/11 03:35:32;;;;;;;11.73;8.50;;;0.60;99.90;;;;;;5014532;28;20230;-83
2023/03/11 03:37:59;;;;;;;14.20;9.13;;;0.60;99.90;;;;;;5013227;28;20249;-83
2023/03/11 03:40:25;;;;;;;14.17;8.83;;;0.70;99.90;;;;;;5012839;28;20187;-82
2023/03/11 03:42:51;;;;;;;11.97;8.43;;;0.70;99.90;;;;;;5014289;28;20190;-84
2023/03/11 03:45:16;;;;;;;12.90;8.83;;;0.70;99.90;;;;;;5012772;28;20175;-83
2023/03/11 03:47:42;;;;;;;11.37;8.00;;;0.60;99.90;;;;;;5013106;28;20679;-83
2023/03/11 03:50:10;;;;;;;11.67;8.70;;;0.70;99.90;;;;;;5012317;28;20638;-83
2023/03/11 03:52:36;;;;;;;12.93;8.90;;;0.60;99.90;;;;;;5012690;28;20182;-83
2023/03/11 03:55:03;;;;;;;12.20;8.90;;;0.60;99.90;;;;;;5012822;28;20179;-83
2023/03/11 03:57:29;;;;;;;13.60;8.30;;;0.60;99.90;;;;;;5013949;28;20191;-83
2023/03/11 03:59:55;;;;;;;17.37;10.03;;;0.60;99.90;;;;;;5012704;28;20207;-83
2023/03/11 04:02:20;;;;;;;16.27;9.80;;;0.70;99.90;;;;;;5012776;28;20298;-83
2023/03/11 04:04:46;;;;;;;14.23;8.93;;;0.60;99.90;;;;;;5012071;28;20623;-84
2023/03/11 04:07:12;;;;;;;14.10;9.60;;;0.60;99.90;;;;;;5012744;28;20179;-84
2023/03/11 04:09:40;;;;;;;13.10;9.03;;;0.60;99.90;;;;;;5012426;28;20613;-84
2023/03/11 04:12:06;;;;;;;11.17;8.03;;;0.60;99.90;;;;;;5028933;28;20183;-83
2023/03/11 04:14:32;;;;;;;12.50;7.93;;;0.50;99.90;;;;;;5029159;28;20195;-83
2023/03/11 04:16:58;;;;;;;14.73;8.57;;;0.50;99.90;;;;;;5012867;28;20606;-83
2023/03/11 04:19:24;;;;;;;10.93;7.33;;;0.50;99.90;;;;;;5013432;28;20230;-83
2023/03/11 04:21:50;;;;;;;13.33;7.00;;;0.60;99.90;;;;;;5012473;28;20197;-83
2023/03/11 04:24:17;;;;;;;9.70;6.63;;;0.60;99.90;;;;;;5012556;28;20183;-83
2023/03/11 04:26:44;;;;;;;12.47;6.10;;;0.60;99.90;;;;;;5012646;28;20188;-83
2023/03/11 04:29:09;;;;;;;8.80;6.53;;;0.60;99.90;;;;;;5013753;28;20215;-83
2023/03/11 04:31:35;;;;;;;12.13;6.90;;;0.50;99.90;;;;;;5012462;28;20180;-84
2023/03/11 04:34:01;;;;;;;10.93;6.43;;;0.50;99.90;;;;;;5011993;28;20250;-84
2023/03/11 04:36:27;;;;;;;12.00;6.20;;;0.50;99.90;;;;;;5012659;28;20684;-83
2023/03/11 04:38:55;;;;;;;10.20;6.40;;;0.50;99.90;;;;;;5012600;28;20629;-84
2023/03/11 04:41:21;;;;;;;9.60;6.40;;;0.50;99.90;;;;;;5012497;28;20578;-84
2023/03/11 04:43:47;;;;;;;9.70;7.03;;;0.50;99.90;;;;;;5011973;28;20515;-84
2023/03/11 04:46:13;;;;;;;10.73;7.17;;;0.50;99.90;;;;;;5012467;28;20179;-83
2023/03/11 04:48:38;;;;;;;10.33;6.93;;;0.50;99.90;;;;;;5011940;28;20256;-83
2023/03/11 04:51:04;;;;;;;9.40;6.37;;;0.50;99.90;;;;;;5012209;28;20634;-84
2023/03/11 04:53:30;;;;;;;9.33;6.20;;;0.50;99.90;;;;;;5012187;28;20190;-85
2023/03/11 04:55:56;;;;;;;9.93;6.80;;;0.50;99.90;;;;;;5012536;28;20213;-83
2023/03/11 04:58:21;;;;;;;8.80;6.37;;;0.50;99.90;;;;;;5012352;28;20621;-83
2023/03/11 05:00:47;;;;;;;9.93;6.40;;;0.40;99.90;;;;;;5028471;28;20229;-84
2023/03/11 05:03:13;;;;;;;10.70;7.10;;;0.50;99.90;;;;;;5011815;28;20261;-83
2023/03/11 05:05:38;;;;;;;8.73;6.10;;;0.50;99.90;;;;;;5013558;28;20230;-84
2023/03/11 05:08:04;;;;;;;9.30;5.83;;;0.50;99.90;;;;;;5012296;28;20203;-84
2023/03/11 05:10:30;;;;;;;9.30;6.30;;;0.50;99.90;;;;;;5012070;28;20222;-83
2023/03/11 05:12:56;;;;;;;8.07;5.93;;;0.50;99.90;;;;;;5028667;28;20190;-82
2023/03/11 05:15:22;;;;;;;8.30;6.00;;;0.50;99.90;;;;;;5012167;28;20596;-83
2023/03/11 05:17:47;;;;;;;8.97;6.27;;;0.50;99.90;;;;;;5013880;28;20261;-84
2023/03/11 05:20:13;;;;;;;9.10;5.70;;;0.50;99.90;;;;;;5015213;28;20188;-83
2023/03/11 05:22:39;;;;;;;9.27;6.40;;;0.40;99.90;;;;;;5015688;28;20563;-83
2023/03/11 05:25:05;;;;;;;9.33;5.80;;;0.50;99.90;;;;;;5015665;28;20182;-83
2023/03/11 05:27:31;;;;;;;7.10;5.57;;;0.50;99.90;;;;;;5015577;28;20206;-83
2023/03/11 05:29:57;;;;;;;7.10;5.63;;;0.50;99.90;;;;;;5031575;28;20236;-83
2023/03/11 05:32:23;;;;;;;8.03;5.40;;;0.40;99.90;;;;;;5015168;28;20180;-83
2023/03/11 05:34:48;;;;;;;8.50;5.30;;;0.50;99.90;;;;;;5014700;28;20633;-83
2023/03/11 05:37:14;;;;;;;8.10;5.20;;;0.40;99.90;;;;;;5015357;28;20172;-83
2023/03/11 05:39:40;;;;;;;8.30;4.97;;;0.40;99.90;;;;;;5016380;28;20286;-84
2023/03/11 05:42:07;;;;;;;7.40;4.90;;;0.40;99.90;;;;;;5015226;28;20180;-83
2023/03/11 05:44:33;;;;;;;6.27;4.83;;;0.40;99.90;;;;;;5014855;28;20179;-83
2023/03/11 05:46:59;;;;;;;8.83;5.10;;;0.40;99.90;;;;;;5015091;28;20176;-83
2023/03/11 05:49:25;;;;;;;6.40;4.80;;;0.30;99.90;;;;;;5014756;28;20260;-83
2023/03/11 05:51:53;;;;;;;5.93;4.40;;;0.40;99.90;;;;;;5016318;28;20270;-83
2023/03/11 05:54:19;;;;;;;7.83;4.83;;;0.40;99.90;;;;;;5015123;28;20298;-83
2023/03/11 05:56:45;;;;;;;8.73;5.10;;;0.40;99.90;;;;;;5014973;28;20198;-83
2023/03/11 05:59:13;;;;;;;9.50;5.03;;;0.40;99.90;;;;;;5014952;28;20230;-83
2023/03/11 06:01:39;;;;;;;5.23;4.43;;;0.30;99.90;;;;;;5015918;28;20921;-85
2023/03/11 06:04:05;;;;;;;9.47;4.50;;;0.30;99.90;;;;;;5014564;28;20223;-82
2023/03/11 06:06:31;;;;;;;4.93;4.10;;;0.30;99.90;;;;;;5014575;28;20277;-82
2023/03/11 06:08:57;;;;;;;6.40;4.40;;;0.40;99.90;;;;;;5014433;28;20733;-82
2023/03/11 06:11:24;;;;;;;8.40;4.00;;;0.30;99.90;;;;;;5015696;28;20167;-83
2023/03/11 06:13:54;;;;;;;5.63;4.23;;;0.30;99.90;;;;;;5014546;28;20183;-83
2023/03/11 06:16:21;;;;;;;7.90;4.63;;;0.40;99.90;;;;;;5031079;28;20569;-83
2023/03/11 06:18:47;;;;;;;6.57;4.00;;;0.40;99.90;;;;;;5014142;28;20187;-83
2023/03/11 06:21:21;;;;;;;8.37;4.70;;;0.30;99.90;;;;;;5014419;28;20179;-83
2023/03/11 06:23:47;;;;;;;9.17;4.07;;;0.30;99.90;;;;;;5015897;28;20176;-83
2023/03/11 06:26:16;;;;;;;10.80;4.13;;;0.40;99.90;;;;;;5014401;28;20487;-83
2023/03/11 06:28:43;;;;;;;6.97;4.37;;;0.40;99.90;;;;;;5030551;28;20214;-83
2023/03/11 06:31:27;;;;;;;7.30;4.30;;;0.40;99.90;;;;;;5014157;28;20179;-83
2023/03/11 06:33:54;;;;;;;6.93;4.27;;;0.30;99.90;;;;;;5014930;28;20231;-83
2023/03/11 06:36:21;;;;;;;7.30;4.23;;;0.40;99.90;;;;;;4997758;28;20573;-83
2023/03/11 06:38:48;;;;;;;5.90;4.03;;;0.40;99.90;;;;;;5015258;28;20171;-83
2023/03/11 06:41:15;;;;;;;8.60;4.40;;;0.40;99.90;;;;;;4997586;28;20179;-84
2023/03/11 06:43:41;;;;;;;5.20;4.40;;;0.40;99.90;;;;;;4997266;28;20191;-83
2023/03/11 06:46:13;;;;;;;6.10;4.03;;;0.40;99.90;;;;;;5015392;28;20171;-83
2023/03/11 06:48:39;;;;;;;7.47;4.50;;;0.40;99.90;;;;;;4997360;28;20228;-83
2023/03/11 06:51:05;;;;;;;7.90;4.40;;;0.40;99.90;;;;;;4997556;28;20175;-83
2023/03/11 06:53:31;;;;;;;14.00;4.40;;;0.40;99.90;;;;;;4997368;28;20218;-83
2023/03/11 06:55:58;;;;;;;5.30;4.03;;;0.40;99.90;;;;;;4997303;28;20654;-83
2023/03/11 06:58:24;;;;;;;7.40;4.43;;;0.50;99.90;;;;;;5015057;28;20174;-83
2023/03/11 07:00:49;;;;;;;6.37;4.43;;;0.50;99.90;;;;;;4997305;28;20178;-82
2023/03/11 07:03:15;;;;;;;8.07;4.63;;;0.50;99.90;;;;;;4997081;28;20630;-83
2023/03/11 07:05:40;;;;;;;6.40;4.33;;;0.50;99.90;;;;;;4996938;28;20708;-82
2023/03/11 07:08:06;;;;;;;10.40;4.93;;;0.60;99.90;;;;;;4997126;28;20213;-83
2023/03/11 07:10:32;;;;;;;9.50;4.67;;;0.60;99.90;;;;;;5014708;28;20486;-82
2023/03/11 07:12:57;;;;;;;6.93;4.50;;;0.60;99.90;;;;;;4997004;28;20270;-84
2023/03/11 07:15:23;;;;;;;10.03;4.77;;;0.70;99.90;;;;;;4997078;28;20598;-83
2023/03/11 07:17:49;;;;;;;8.03;4.33;;;0.70;99.90;;;;;;4997137;28;20186;-83
2023/03/11 07:20:14;;;;;;;7.40;4.47;;;0.80;99.90;;;;;;4996695;28;20180;-82
2023/03/11 07:22:40;;;;;;;8.23;4.43;;;0.80;99.90;;;;;;5014506;28;20175;-83
2023/03/11 07:25:06;;;;;;;8.67;4.77;;;0.80;99.90;;;;;;4996853;28;20193;-83
2023/03/11 07:27:32;;;;;;;5.53;3.97;;;0.80;99.90;;;;;;4996778;28;20179;-83
2023/03/11 07:29:59;;;;;;;7.70;4.33;;;0.80;99.90;;;;;;4995957;28;20186;-82
2023/03/11 07:32:25;;;;;;;7.33;4.83;;;0.80;99.90;;;;;;4996787;28;20511;-83
2023/03/11 07:34:50;;;;;;;8.93;4.80;;;0.90;99.90;;;;;;5012447;28;20245;-83
2023/03/11 07:37:16;;;;;;;6.60;4.37;;;0.90;99.90;;;;;;5013068;28;20232;-83
2023/03/11 07:39:41;;;;;;;7.87;4.33;;;0.90;99.90;;;;;;5012254;28;20644;-83
2023/03/11 07:42:07;;;;;;;8.23;4.70;;;0.90;99.90;;;;;;5012822;28;20179;-83
2023/03/11 07:44:33;;;;;;;11.20;5.00;;;0.90;99.90;;;;;;5013182;28;20179;-83
2023/03/11 07:47:02;;;;;;;8.20;4.93;;;1.00;99.90;;;;;;5013011;28;20264;-83
2023/03/11 07:49:27;;;;;;;10.27;5.17;;;1.00;99.90;;;;;;5012551;28;20523;-83
2023/03/11 07:51:53;;;;;;;7.70;4.83;;;0.90;99.90;;;;;;5012652;28;20186;-82
2023/03/11 07:54:18;;;;;;;7.67;5.00;;;0.90;99.90;;;;;;5012438;28;20186;-82
2023/03/11 07:56:44;;;;;;;8.10;4.80;;;1.00;99.90;;;;;;5014105;28;20186;-82
2023/03/11 07:59:10;;;;;;;9.77;4.70;;;1.00;99.90;;;;;;5011352;28;20204;-82
2023/03/11 08:01:39;;;;;;;10.90;4.77;;;1.00;99.90;;;;;;5013997;28;20181;-83
2023/03/11 08:04:07;;;;;;;7.77;4.87;;;1.10;99.90;;;;;;5011306;28;20213;-81
2023/03/11 08:06:34;;;;;;;6.53;4.83;;;1.10;99.90;;;;;;5011100;28;20189;-83
2023/03/11 08:09:02;;;;;;;9.97;6.10;;;1.10;99.90;;;;;;5011658;28;20219;-81
2023/03/11 08:11:30;;;;;;;8.67;4.93;;;1.10;99.90;;;;;;5012347;28;20193;-82
2023/03/11 08:13:56;;;;;;;10.23;5.00;;;1.10;99.90;;;;;;5011268;28;20234;-82
2023/03/11 08:16:23;;;;;;;7.97;4.77;;;1.20;99.90;;;;;;5010797;28;20184;-83
2023/03/11 08:18:50;;;;;;;7.43;5.10;;;1.20;99.90;;;;;;5010789;28;20270;-81
2023/03/11 08:21:27;;;;;;;9.43;5.10;;;1.30;99.90;;;;;;5010637;28;20191;-84
2023/03/11 08:23:57;;;;;;;10.77;5.37;;;1.30;99.90;;;;;;5011147;28;20197;-84
2023/03/11 08:26:23;;;;;;;8.47;5.70;;;1.40;99.90;;;;;;5010902;28;20626;-83
2023/03/11 08:28:49;;;;;;;8.47;6.17;;;1.50;99.90;;;;;;5011362;28;20245;-82
2023/03/11 08:31:17;;;;;;;6.93;5.20;;;1.50;99.90;;;;;;5011379;28;20183;-83
2023/03/11 08:33:45;;;;;;;8.10;4.77;;;1.50;99.90;;;;;;5011401;28;20255;-83
2023/03/11 08:36:11;;;;;;;9.40;5.27;;;1.50;99.90;;;;;;5011602;28;20235;-84
2023/03/11 08:38:37;;;;;;;8.43;5.10;;;1.50;99.90;;;;;;5012585;28;20237;-83
2023/03/11 08:41:03;;;;;;;7.33;5.03;;;1.50;99.90;;;;;;5013448;28;20171;-84
2023/03/11 08:43:29;;;;;;;6.60;5.10;;;1.60;99.90;;;;;;5013041;28;20280;-84
2023/03/11 08:45:59;;;;;;;8.27;5.40;;;1.70;99.90;;;;;;5012188;28;20680;-83
2023/03/11 08:48:25;;;;;;;6.73;5.00;;;1.80;99.90;;;;;;5012191;28;20217;-84
2023/03/11 08:50:50;;;;;;;9.53;4.97;;;1.90;99.90;;;;;;5012056;28;20185;-85
2023/03/11 08:53:16;;;;;;;7.23;4.60;;;1.90;99.90;;;;;;5014807;28;20183;-85
2023/03/11 08:55:42;;;;;;;7.23;4.33;;;1.90;99.90;;;;;;5017200;28;20175;-85
2023/03/11 08:58:07;;;;;;;7.77;5.20;;;1.80;99.90;;;;;;5017394;28;20653;-85
2023/03/11 09:00:33;;;;;;;6.30;4.70;;;1.80;99.90;;;;;;5016302;28;20621;-85
2023/03/11 09:02:59;;;;;;;7.33;4.90;;;1.90;99.90;;;;;;5015295;28;20187;-85
2023/03/11 09:05:24;;;;;;;10.67;5.40;;;1.80;99.90;;;;;;5010766;28;20274;-87
2023/03/11 09:07:50;;;;;;;6.93;5.27;;;1.80;99.90;;;;;;5013155;28;20576;-85
2023/03/11 09:10:16;;;;;;;7.93;5.10;;;1.90;99.90;;;;;;5006889;28;20227;-85
2023/03/11 09:12:42;;;;;;;6.57;4.63;;;1.90;99.90;;;;;;5003630;28;20187;-85
2023/03/11 09:15:09;;;;;;;7.07;5.00;;;2.00;99.90;;;;;;5011279;28;20195;-86
2023/03/11 09:17:36;;;;;;;11.90;6.20;;;2.00;99.90;;;;;;5014553;28;20188;-84
2023/03/11 09:20:03;;;;;;;7.90;4.67;;;1.90;99.90;;;;;;5013496;28;20212;-85
2023/03/11 09:22:28;;;;;;;8.60;5.93;;;1.90;99.90;;;;;;5015712;28;20183;-85
2023/03/11 09:24:55;;;;;;;9.53;5.73;;;1.90;99.90;;;;;;5015621;28;20530;-86
2023/03/11 09:27:20;;;;;;;7.43;5.03;;;1.90;99.90;;;;;;5015713;28;20194;-85
2023/03/11 09:29:46;;;;;;;12.50;5.63;;;1.90;99.90;;;;;;5015862;28;20520;-84
2023/03/11 09:32:13;;;;;;;11.10;6.10;;;2.00;99.90;;;;;;5015497;28;20511;-87
2023/03/11 09:34:38;;;;;;;10.33;5.57;;;2.30;99.90;;;;;;4983232;28;20234;-85
2023/03/11 09:37:04;;;;;;;9.80;5.40;;;2.30;99.90;;;;;;4979602;28;20579;-85
2023/03/11 09:39:30;;;;;;;10.77;5.40;;;2.30;99.90;;;;;;4996835;28;20190;-87
2023/03/11 09:42:00;;;;;;;7.97;5.77;;;2.50;99.90;;;;;;4980184;28;20183;-87
2023/03/11 09:44:35;;;;;;;9.07;5.80;;;2.60;99.90;;;;;;4979754;28;20196;-86
2023/03/11 09:47:28;;;;;;;6.57;5.63;;;2.60;99.90;;;;;;4979239;28;20242;-84
2023/03/11 09:50:14;;;;;;;7.67;5.03;;;2.60;99.90;;;;;;4979387;28;20192;-85
2023/03/11 09:52:57;;;;;;;9.80;5.40;;;2.60;99.90;;;;;;4979076;28;20509;-85
2023/03/11 09:55:43;;;;;;;8.87;5.30;;;2.60;99.90;;;;;;4996185;28;20172;-84
2023/03/11 09:58:18;;;;;;;7.17;5.17;;;2.50;99.90;;;;;;4996420;28;20164;-84
2023/03/11 10:00:44;;;;;;;9.53;5.50;;;2.60;99.90;;;;;;4978904;28;20519;-85
2023/03/11 10:03:23;;;;;;;11.03;5.30;;;2.60;99.90;;;;;;4995761;28;20176;-84
2023/03/11 10:05:51;;;;;;;8.37;5.43;;;2.50;99.90;;;;;;4995825;28;20556;-84
2023/03/11 10:08:29;;;;;;;7.60;5.63;;;2.50;99.90;;;;;;4978639;28;20406;-84
2023/03/11 10:11:23;;;;;;;6.70;5.07;;;2.60;99.90;;;;;;4977094;28;20176;-83
2023/03/11 10:14:05;;;;;;;7.97;4.87;;;2.60;99.90;;;;;;4975570;28;20191;-84
2023/03/11 10:16:54;;;;;;;8.83;4.97;;;3.00;99.90;;;;;;4995930;28;20291;-84
2023/03/11 10:19:38;;;;;;;6.33;4.87;;;3.00;99.90;;;;;;4977694;28;20604;-88
2023/03/11 10:22:24;;;;;;;7.30;4.97;;;3.10;99.90;;;;;;4979587;28;20267;-87
2023/03/11 10:25:04;;;;;;;7.03;4.57;;;3.10;99.90;;;;;;4940798;28;20282;-88
2023/03/11 10:27:39;;;;;;;7.83;4.77;;;3.00;99.90;;;;;;4974100;28;20195;-88
2023/03/11 10:30:27;;;;;;;7.67;4.33;;;2.90;99.90;;;;;;4982214;28;20187;-85
2023/03/11 10:33:06;;;;;;;6.93;5.00;;;2.70;99.90;;;;;;4978224;28;20686;-85
2023/03/11 10:35:39;;;;;;;7.23;4.40;;;2.60;99.90;;;;;;4976886;28;20580;-86
2023/03/11 10:38:15;;;;;;;8.43;4.70;;;2.60;99.90;;;;;;4976429;28;20223;-87
2023/03/11 10:40:45;;;;;;;6.00;4.57;;;2.40;99.90;;;;;;4968261;28;20192;-86
2023/03/11 10:43:18;;;;;;;7.40;4.67;;;2.50;99.90;;;;;;4973221;28;20250;-87
2023/03/11 10:45:47;;;;;;;6.90;4.73;;;2.70;99.90;;;;;;4977652;28;20185;-88
2023/03/11 10:48:15;;;;;;;5.93;4.27;;;2.80;99.90;;;;;;4994946;28;20262;-89
2023/03/11 10:50:49;;;;;;;6.77;3.93;;;2.80;99.90;;;;;;4995137;28;20198;-87
2023/03/11 10:53:17;;;;;;;6.27;4.17;;;2.70;99.90;;;;;;4992926;28;20692;-86
2023/03/11 10:55:49;;;;;;;6.67;4.63;;;2.70;99.90;;;;;;4977928;28;20217;-87
2023/03/11 10:58:19;;;;;;;10.13;5.10;;;2.70;99.90;;;;;;4978152;28;20222;-85
2023/03/11 11:00:45;;;;;;;6.93;4.50;;;2.90;99.90;;;;;;4995411;28;20163;-86
2023/03/11 11:03:22;;;;;;;18.20;3.43;;;3.00;99.90;;;;;;4968461;28;20705;-85
2023/03/11 11:06:04;;;;;;;9.10;4.27;;;3.00;99.90;;;;;;4967775;28;20192;-85
2023/03/11 11:08:33;;;;;;;6.63;4.30;;;2.90;99.90;;;;;;4970586;28;20277;-83
2023/03/11 11:11:23;;;;;;;7.47;4.10;;;3.10;99.90;;;;;;4957856;28;20516;-84
2023/03/11 11:13:57;;;;;;;6.00;3.23;;;3.40;99.90;;;;;;4970110;28;20193;-84
2023/03/11 11:16:23;;;;;;;6.50;3.50;;;3.50;99.90;;;;;;4976793;28;20183;-84
2023/03/11 11:18:53;;;;;;;6.07;3.30;;;3.70;99.90;;;;;;4977645;28;20184;-84
2023/03/11 11:21:38;;;;;;;5.60;3.70;;;3.70;99.90;;;;;;4977665;28;20199;-85
2023/03/11 11:24:22;;;;;;;7.30;4.00;;;3.60;99.90;;;;;;4977836;28;20168;-85
2023/03/11 11:27:03;;;;;;;5.90;3.30;;;3.30;99.90;;;;;;4977610;28;20314;-87
2023/03/11 11:29:29;;;;;;;6.10;3.63;;;3.30;99.90;;;;;;4977636;28;20668;-87
2023/03/11 11:32:18;;;;;;;7.67;3.73;;;3.30;99.90;;;;;;4977956;28;20607;-86
2023/03/11 11:35:09;;;;;;;11.63;4.53;;;3.50;99.90;;;;;;5010564;28;20313;-87
2023/03/11 11:37:38;;;;;;;8.47;3.83;;;3.60;99.90;;;;;;4993992;28;20175;-86
2023/03/11 11:40:23;;;;;;;6.13;3.10;;;3.70;99.90;;;;;;4993819;28;20642;-89
2023/03/11 11:42:57;;;;;;;4.90;3.23;;;3.60;99.90;;;;;;4994310;28;20176;-87
2023/03/11 11:45:39;;;;;;;7.97;2.73;;;3.80;99.90;;;;;;4994265;28;20500;-88
2023/03/11 11:48:10;;;;;;;5.53;2.70;;;3.80;99.90;;;;;;4993845;28;20203;-89
2023/03/11 11:50:44;;;;;;;6.40;3.20;;;3.70;99.90;;;;;;5010011;28;20172;-88
2023/03/11 11:53:18;;;;;;;5.40;2.90;;;3.80;99.90;;;;;;4993914;28;20610;-89
2023/03/11 11:55:49;;;;;;;3.87;2.43;;;3.70;99.90;;;;;;5010165;28;20681;-88
2023/03/11 11:58:14;;;;;;;3.73;2.40;;;3.50;99.90;;;;;;4994059;28;20176;-90
2023/03/11 12:01:05;;;;;;;3.00;2.17;;;3.60;99.90;;;;;;4994741;28;20518;-88
2023/03/11 12:03:38;;;;;;;7.77;2.60;;;3.50;99.90;;;;;;4980165;28;20204;-88
2023/03/11 12:06:23;;;;;;;5.33;2.57;;;3.60;99.90;;;;;;5004074;28;20191;-89
2023/03/11 12:09:03;;;;;;;5.87;2.30;;;3.90;99.90;;;;;;5013477;28;20207;-90
2023/03/11 12:11:41;;;;;;;4.97;3.07;;;4.00;99.90;;;;;;5013133;28;20254;-89
2023/03/11 12:14:14;;;;;;;6.10;3.20;;;3.80;99.90;;;;;;5013458;28;20163;-89
2023/03/11 12:16:48;;;;;;;6.63;2.97;;;3.60;99.90;;;;;;5013137;28;20174;-88
2023/03/11 12:19:34;;;;;;;5.87;2.37;;;3.50;99.90;;;;;;5013445;28;20175;-87
2023/03/11 12:22:29;;;;;;;3.43;2.13;;;3.60;99.90;;;;;;5013242;28;20163;-88
2023/03/11 12:25:04;;;;;;;4.20;2.20;;;3.80;99.90;;;;;;5013125;28;20213;-88
2023/03/11 12:27:39;;;;;;;5.43;1.60;;;4.00;99.90;;;;;;5016217;28;20166;-89
2023/03/11 12:30:21;;;;;;;4.67;1.97;;;4.20;99.90;;;;;;5017113;28;20194;-88
2023/03/11 12:32:59;;;;;;;4.83;2.40;;;4.20;99.90;;;;;;5017162;28;20610;-89
2023/03/11 12:35:34;;;;;;;3.00;1.70;;;4.50;99.90;;;;;;5000641;28;20207;-89
2023/03/11 12:38:12;;;;;;;2.97;1.60;;;4.40;99.90;;;;;;5000636;28;20217;-88
2023/03/11 12:40:43;;;;;;;4.90;2.37;;;4.40;99.90;;;;;;5000423;28;20270;-90
2023/03/11 12:43:28;;;;;;;3.17;1.50;;;4.20;99.90;;;;;;5000875;28;20175;-89
2023/03/11 12:45:59;;;;;;;6.77;1.90;;;4.30;99.90;;;;;;5001047;28;20179;-90
2023/03/11 12:48:28;;;;;;;5.20;1.70;;;4.50;99.90;;;;;;5000552;28;20209;-88
2023/03/11 12:50:56;;;;;;;7.23;1.87;;;4.60;99.90;;;;;;5000657;28;20179;-93
2023/03/11 12:53:47;;;;;;;4.00;1.57;;;4.40;99.90;;;;;;5000806;28;20517;-93
2023/03/11 12:56:22;;;;;;;6.07;1.90;;;4.40;99.90;;;;;;5000209;28;20167;-89
2023/03/11 12:58:56;;;;;;;4.07;1.60;;;4.30;99.90;;;;;;5000578;28;20171;-89
2023/03/11 13:01:52;;;;;;;5.03;1.33;;;4.40;99.90;;;;;;5000281;28;20213;-89
2023/03/11 13:04:48;;;;;;;5.30;1.63;;;4.60;99.90;;;;;;5000302;28;20171;-90
2023/03/11 13:07:42;;;;;;;3.87;1.67;;;4.60;99.90;;;;;;4999168;28;20179;-90